Time;durP1;ratioP1;P1;durP2;ratioP2;P2;SDS_P1;SDS_P2;PMS_P1;PMS_P2;Temp;Humidity;BMP_temperature;BMP_pressure;BME280_temperature;BME280_humidity;BME280_pressure;Samples;Min_cycle;Max_cycle;Signal;HPM_P1;HPM_P2
2022/12/28 07:57:15;;;;;;;19.25;7.43;;;;;;;13.34;65.38;97777.13;5141638;27;20535;-27
2022/12/28 07:59:41;;;;;;;11.05;7.72;;;;;;;13.59;64.74;97768.59;5141736;27;20031;-27
2022/12/28 08:02:08;;;;;;;10.52;6.47;;;;;;;13.87;63.98;97775.50;5131556;27;20019;-27
2022/12/28 08:04:33;;;;;;;9.82;6.38;;;;;;;14.10;62.54;97772.00;5131648;27;20030;-26
2022/12/28 08:06:59;;;;;;;11.57;6.68;;;;;;;14.29;62.28;97777.50;5130452;27;20019;-26
2022/12/28 08:09:24;;;;;;;9.80;5.80;;;;;;;14.43;61.54;97781.97;5152220;27;20026;-26
2022/12/28 08:11:49;;;;;;;10.68;5.72;;;;;;;14.55;61.28;97780.56;5143463;27;20023;-26
2022/12/28 08:14:15;;;;;;;7.22;5.55;;;;;;;14.64;60.97;97781.53;5131572;27;20112;-27
2022/12/28 08:16:42;;;;;;;8.27;5.32;;;;;;;14.76;60.94;97784.84;5131795;27;20420;-26
2022/12/28 08:19:08;;;;;;;8.90;5.70;;;;;;;14.81;60.69;97790.59;5140307;27;20023;-26
2022/12/28 08:21:39;;;;;;;6.57;5.03;;;;;;;14.91;60.38;97789.59;5151695;27;20431;-27
2022/12/28 08:24:06;;;;;;;5.93;4.82;;;;;;;14.97;60.18;97787.88;5133385;27;20019;-26
2022/12/28 08:26:34;;;;;;;5.90;4.80;;;;;;;15.10;59.78;97788.00;5137551;27;20038;-26
2022/12/28 08:29:05;;;;;;;7.47;4.85;;;;;;;15.13;59.81;97789.13;5130822;27;20027;-27
2022/12/28 08:31:35;;;;;;;7.28;5.38;;;;;;;15.19;60.00;97780.03;5124787;27;20491;-28
2022/12/28 08:34:02;;;;;;;7.07;4.85;;;;;;;15.21;59.46;97787.78;5131221;27;20026;-26
2022/12/28 08:36:28;;;;;;;6.68;4.60;;;;;;;15.23;59.28;97786.16;5130981;27;20459;-27
2022/12/28 08:38:53;;;;;;;7.35;4.78;;;;;;;15.26;59.24;97784.56;5137230;27;20023;-26
2022/12/28 08:41:22;;;;;;;6.53;4.65;;;;;;;15.29;59.14;97800.09;5135315;27;20031;-28
2022/12/28 08:43:47;;;;;;;6.35;4.13;;;;;;;15.33;59.19;97792.63;5133514;27;20057;-27
2022/12/28 08:46:18;;;;;;;7.50;5.90;;;;;;;14.30;62.85;97792.69;5133196;27;20047;-26
2022/12/28 08:48:45;;;;;;;10.75;6.68;;;;;;;14.55;62.61;97788.75;5133394;27;20030;-26
2022/12/28 08:51:14;;;;;;;9.65;5.95;;;;;;;14.98;61.19;97788.66;5130783;27;20028;-27
2022/12/28 08:53:41;;;;;;;13.07;5.85;;;;;;;15.16;60.24;97789.06;5130584;27;20027;-26
2022/12/28 08:56:09;;;;;;;9.60;6.32;;;;;;;15.28;60.06;97793.88;5130616;27;20043;-27
2022/12/28 08:58:36;;;;;;;8.93;5.60;;;;;;;15.31;60.05;97787.56;5130411;28;20471;-27
2022/12/28 09:01:13;;;;;;;9.93;5.70;;;;;;;15.41;59.42;97785.78;5112194;27;20023;-27
2022/12/28 09:03:40;;;;;;;8.85;5.53;;;;;;;15.40;59.47;97787.75;5150580;27;20463;-26
2022/12/28 09:06:09;;;;;;;9.48;5.32;;;;;;;15.46;59.48;97777.81;5150730;27;20019;-27
2022/12/28 09:08:35;;;;;;;7.55;5.00;;;;;;;15.42;59.28;97785.34;5119076;27;20030;-27
2022/12/28 09:11:03;;;;;;;6.45;4.80;;;;;;;15.51;58.97;97795.69;5116700;28;20030;-26
2022/12/28 09:13:30;;;;;;;7.68;4.97;;;;;;;15.52;58.95;97794.50;5116999;28;20061;-26
2022/12/28 09:15:58;;;;;;;8.10;5.28;;;;;;;15.53;58.93;97798.00;5116636;28;20024;-26
2022/12/28 09:18:23;;;;;;;7.72;5.82;;;;;;;15.54;58.93;97799.56;5116476;28;20053;-26
2022/12/28 09:20:49;;;;;;;9.85;6.07;;;;;;;15.62;58.66;97798.97;5116345;28;20020;-27
2022/12/28 09:23:14;;;;;;;6.80;5.47;;;;;;;15.65;58.63;97802.84;5117324;27;20110;-27
2022/12/28 09:39:50;;;;;;;7.07;5.55;;;;;;;15.68;58.69;97810.19;5115985;28;20035;-26
2022/12/28 09:42:22;;;;;;;8.50;6.80;;;;;;;15.62;58.93;97807.19;5115600;28;20035;-26
2022/12/28 09:45:05;;;;;;;7.05;6.10;;;;;;;15.63;58.83;97807.97;5121561;27;20011;-26
2022/12/28 09:47:46;;;;;;;8.55;6.70;;;;;;;15.67;59.05;97801.22;5117260;27;20034;-26
2022/12/28 09:50:17;;;;;;;9.35;5.93;;;;;;;15.64;59.08;97812.22;5113413;28;20034;-26
2022/12/28 09:53:16;;;;;;;9.57;6.20;;;;;;;15.70;58.88;97807.81;5114559;27;20030;-26
2022/12/28 09:55:50;;;;;;;8.18;6.18;;;;;;;15.70;58.95;97805.81;5131130;27;20035;-26
2022/12/28 09:58:16;;;;;;;8.15;6.25;;;;;;;15.71;58.94;97806.59;5108066;28;20062;-26
2022/12/28 10:00:43;;;;;;;8.82;5.72;;;;;;;15.71;59.02;97790.19;5118614;27;20423;-26
2022/12/28 10:03:15;;;;;;;7.75;5.75;;;;;;;15.78;59.01;97792.75;5126231;27;20102;-27
2022/12/28 10:05:41;;;;;;;7.32;5.93;;;;;;;15.73;58.84;97785.81;5117780;27;20007;-26
2022/12/28 10:08:12;;;;;;;9.02;6.25;;;;;;;15.65;59.42;97786.44;5119311;27;20111;-27
2022/12/28 10:10:39;;;;;;;7.53;5.70;;;;;;;15.73;58.92;97791.28;5110692;28;20022;-26
2022/12/28 10:13:19;;;;;;;8.75;6.13;;;;;;;15.71;59.01;97784.72;5115726;27;20366;-26
2022/12/28 10:15:45;;;;;;;7.68;5.50;;;;;;;15.79;59.04;97778.66;5115061;28;20016;-26
2022/12/28 10:18:14;;;;;;;7.78;5.95;;;;;;;15.82;58.55;97779.00;5114924;28;20059;-26
2022/12/28 10:20:41;;;;;;;7.80;5.47;;;;;;;15.79;58.72;97773.19;5114966;27;20015;-26
2022/12/28 10:36:33;;;;;;;7.43;6.00;;;;;;;15.90;58.82;97759.25;5114540;28;20038;-26
2022/12/28 10:38:59;;;;;;;9.35;5.35;;;;;;;15.78;59.57;97762.66;5114546;28;20020;-26
2022/12/28 10:41:35;;;;;;;5.85;5.22;;;;;;;15.80;59.05;97758.31;5114622;28;20035;-26
2022/12/28 10:44:13;;;;;;;8.95;5.82;;;;;;;15.69;60.41;97757.81;5126060;27;20030;-26
2022/12/28 10:46:59;;;;;;;6.32;5.20;;;;;;;15.54;60.55;97750.34;5121111;27;20510;-26
2022/12/28 10:49:37;;;;;;;7.03;5.32;;;;;;;15.57;60.61;97750.28;5133196;27;20038;-26
2022/12/28 10:52:14;;;;;;;7.82;5.22;;;;;;;15.72;59.98;97750.69;5125510;27;20428;-26
2022/12/28 10:54:41;;;;;;;7.20;5.32;;;;;;;15.73;59.88;97749.50;5115787;27;20421;-28
2022/12/28 10:57:18;;;;;;;19.85;5.63;;;;;;;15.48;61.38;97752.03;5127074;27;20046;-26
2022/12/28 10:59:45;;;;;;;7.65;5.28;;;;;;;15.41;61.22;97753.75;5114494;28;20464;-26
2022/12/28 11:02:28;;;;;;;7.22;5.25;;;;;;;15.70;59.99;97748.38;5129090;27;20459;-27
2022/12/28 11:05:02;;;;;;;7.32;5.43;;;;;;;15.71;60.24;97749.91;5134785;27;20083;-26
2022/12/28 11:07:34;;;;;;;8.35;5.93;;;;;;;15.64;60.69;97749.34;5130473;27;20107;-26
2022/12/28 11:10:32;;;;;;;11.40;4.83;;;;;;;15.69;60.19;97746.09;5114615;28;20360;-27
2022/12/28 11:13:00;;;;;;;6.30;4.75;;;;;;;15.79;59.38;97745.84;5058864;28;20270;-26
2022/12/28 11:15:32;;;;;;;5.50;4.43;;;;;;;15.81;59.66;97748.16;5114213;27;20035;-26
2022/12/28 11:18:16;;;;;;;6.53;4.77;;;;;;;15.79;59.58;97745.06;5114308;28;20024;-28
2022/12/28 11:20:44;;;;;;;6.47;5.00;;;;;;;15.75;59.89;97739.66;5127972;27;20263;-27
2022/12/28 11:23:17;;;;;;;5.80;4.35;;;;;;;15.62;60.08;97740.78;5114611;28;20023;-26
2022/12/28 11:25:42;;;;;;;8.88;4.10;;;;;;;15.62;59.90;97746.25;5113998;28;20413;-26
2022/12/28 11:28:28;;;;;;;5.10;4.40;;;;;;;15.91;59.39;97740.88;5114320;28;20067;-26
2022/12/28 11:30:55;;;;;;;8.18;4.32;;;;;;;15.76;59.80;97740.44;5122979;27;20496;-26
2022/12/28 11:33:38;;;;;;;7.68;4.78;;;;;;;15.77;59.51;97741.97;5131386;27;20028;-26
2022/12/28 11:36:05;;;;;;;4.63;3.92;;;;;;;15.93;58.96;97735.72;5126460;27;20498;-26
2022/12/28 11:38:42;;;;;;;8.23;4.28;;;;;;;15.92;58.93;97732.22;5121073;27;20498;-26
2022/12/28 11:41:31;;;;;;;6.57;4.35;;;;;;;15.99;58.82;97725.78;5133581;27;20046;-26
2022/12/28 11:44:00;;;;;;;5.88;3.95;;;;;;;15.99;58.84;97726.56;5113736;28;20027;-26
2022/12/28 11:46:25;;;;;;;4.97;3.90;;;;;;;16.00;58.90;97719.88;5118698;28;20029;-26
2022/12/28 11:48:58;;;;;;;5.55;4.15;;;;;;;16.03;58.94;97726.47;5123216;27;20386;-26
2022/12/28 11:51:25;;;;;;;6.55;4.18;;;;;;;16.04;58.68;97728.00;5113945;28;20467;-26
2022/12/28 11:53:57;;;;;;;6.57;4.47;;;;;;;16.07;58.64;97727.91;5113790;28;20442;-26
2022/12/28 11:56:42;;;;;;;5.03;4.38;;;;;;;16.08;58.40;97723.97;5120137;28;20063;-26
2022/12/28 11:59:28;;;;;;;6.38;4.13;;;;;;;16.12;58.55;97718.41;5113323;28;20042;-27
2022/12/28 12:01:55;;;;;;;7.25;4.00;;;;;;;16.01;58.82;97712.44;5126512;28;20027;-26
2022/12/28 12:04:41;;;;;;;7.38;4.30;;;;;;;15.91;59.26;97708.03;5120253;28;20019;-26
2022/12/28 12:07:19;;;;;;;5.45;3.95;;;;;;;15.92;59.14;97702.13;5119665;28;20103;-26
2022/12/28 12:09:46;;;;;;;5.30;4.07;;;;;;;16.03;58.61;97708.09;5113885;28;20031;-27
2022/12/28 12:12:15;;;;;;;5.63;3.92;;;;;;;16.04;58.66;97704.16;5113484;28;20259;-26
2022/12/28 12:14:44;;;;;;;4.32;3.90;;;;;;;16.00;58.74;97705.44;5114404;28;20098;-26
2022/12/28 12:17:31;;;;;;;6.07;4.10;;;;;;;15.91;59.54;97708.81;5113398;28;20506;-26
2022/12/28 12:20:06;;;;;;;7.72;4.28;;;;;;;15.99;58.98;97710.16;5127571;28;20050;-26
2022/12/28 12:22:47;;;;;;;5.80;4.13;;;;;;;16.11;58.71;97703.19;5113423;28;20452;-26
2022/12/28 12:25:43;;;;;;;6.03;4.20;;;;;;;16.04;58.92;97698.69;5114107;28;20027;-26
2022/12/28 12:28:28;;;;;;;6.28;3.97;;;;;;;16.07;58.86;97700.53;5092950;28;20035;-26
2022/12/28 12:30:55;;;;;;;6.70;4.93;;;;;;;15.93;59.08;97706.41;5113451;28;20019;-26
2022/12/28 12:33:26;;;;;;;7.13;4.65;;;;;;;16.09;58.76;97705.59;5113610;28;20026;-26
2022/12/28 12:36:15;;;;;;;6.68;4.90;;;;;;;16.03;58.78;97699.88;5113340;28;20028;-26
2022/12/28 12:38:59;;;;;;;6.78;4.28;;;;;;;16.08;58.62;97702.06;5113416;28;20024;-26
2022/12/28 12:42:06;;;;;;;6.93;4.80;;;;;;;16.06;58.53;97699.03;5113385;28;20048;-26
2022/12/28 12:44:39;;;;;;;9.23;5.55;;;;;;;16.09;58.54;97686.44;5117356;28;20020;-26
2022/12/28 12:47:27;;;;;;;9.23;5.50;;;;;;;16.05;58.80;97683.81;5126897;27;20041;-26
2022/12/28 12:50:27;;;;;;;8.45;5.57;;;;;;;16.07;58.52;97686.84;5108604;28;20035;-26
2022/12/28 12:53:13;;;;;;;8.30;5.50;;;;;;;16.14;58.35;97678.47;5131144;27;20359;-26
2022/12/28 12:55:57;;;;;;;9.68;5.13;;;;;;;16.11;58.42;97673.84;5098439;28;20495;-26
2022/12/28 12:58:35;;;;;;;6.05;4.93;;;;;;;16.16;58.50;97676.06;5116906;28;20046;-26
2022/12/28 13:01:26;;;;;;;9.35;5.15;;;;;;;16.16;58.22;97676.06;5130589;27;20428;-26
2022/12/28 13:03:57;;;;;;;7.25;5.20;;;;;;;16.05;58.54;97667.38;5116806;27;20056;-27
2022/12/28 13:06:28;;;;;;;8.25;5.15;;;;;;;16.11;58.63;97673.84;5116860;28;20023;-26
2022/12/28 13:09:01;;;;;;;6.43;4.43;;;;;;;16.05;58.53;97672.09;5116507;28;20099;-26
2022/12/28 13:11:27;;;;;;;;;;;;;;;16.07;58.51;97667.69;5126848;27;20041;-26
2022/12/28 13:13:53;;;;;;;8.70;5.22;;;;;;;15.85;59.15;97669.47;5120110;27;19930;-27
2022/12/28 13:16:24;;;;;;;8.48;4.90;;;;;;;15.99;58.88;97666.38;5116462;28;20028;-26
2022/12/28 13:18:57;;;;;;;7.50;5.05;;;;;;;16.13;58.67;97657.78;5130334;27;20463;-26
2022/12/28 13:21:24;;;;;;;9.03;4.87;;;;;;;16.16;58.47;97669.81;5116732;28;20038;-26
2022/12/28 13:23:51;;;;;;;8.18;4.88;;;;;;;16.08;58.68;97661.03;5116505;28;20062;-26
2022/12/28 13:26:18;;;;;;;8.68;5.10;;;;;;;16.13;58.65;97660.50;5116406;27;20459;-26
2022/12/28 13:28:59;;;;;;;5.80;4.68;;;;;;;16.00;58.94;97662.44;5116357;28;20078;-26
2022/12/28 13:31:36;;;;;;;6.70;4.82;;;;;;;16.21;58.31;97661.06;5116504;28;20057;-26
2022/12/28 13:34:22;;;;;;;7.70;5.35;;;;;;;16.19;58.23;97668.97;5116262;28;20043;-26
2022/12/28 13:36:52;;;;;;;7.18;5.32;;;;;;;16.00;58.96;97658.94;5116148;28;20023;-26
2022/12/28 13:39:19;;;;;;;6.20;4.80;;;;;;;16.06;58.74;97660.72;5116102;28;20050;-26
2022/12/28 13:41:54;;;;;;;8.15;5.50;;;;;;;16.09;58.68;97661.78;5123055;27;20646;-26
2022/12/28 13:44:32;;;;;;;6.65;5.10;;;;;;;16.12;58.52;97664.44;5116797;27;20026;-26
2022/12/28 13:47:25;;;;;;;8.13;5.18;;;;;;;16.16;58.55;97662.38;5116261;27;20020;-26
2022/12/28 13:49:53;;;;;;;;;;;;;;;16.14;58.35;97670.25;5116718;27;20019;-26
2022/12/28 13:52:29;;;;;;;6.55;4.55;;;;;;;16.11;58.57;97667.59;5115857;27;19911;-28
2022/12/28 13:54:59;;;;;;;6.95;4.63;;;;;;;16.09;58.69;97665.31;5115862;28;20023;-28
2022/12/28 13:57:29;;;;;;;9.00;5.35;;;;;;;16.12;58.19;97663.69;5129431;27;20019;-26
2022/12/28 13:59:55;;;;;;;6.75;4.35;;;;;;;16.04;58.71;97668.59;5125092;27;20427;-26
2022/12/28 14:02:23;;;;;;;7.68;4.55;;;;;;;16.10;58.53;97666.84;5135828;27;20400;-26
2022/12/28 14:04:50;;;;;;;7.60;4.50;;;;;;;16.12;58.59;97667.19;5136306;27;20027;-26
2022/12/28 14:07:17;;;;;;;6.03;4.47;;;;;;;16.07;58.77;97662.22;5120364;27;20028;-28
2022/12/28 14:09:45;;;;;;;7.00;5.03;;;;;;;16.09;58.35;97670.78;5118138;27;20019;-26
2022/12/28 14:12:14;;;;;;;8.20;4.80;;;;;;;16.14;58.27;97670.25;5117274;27;20034;-26
2022/12/28 14:14:41;;;;;;;6.30;4.32;;;;;;;16.12;58.50;97669.91;5115548;27;20042;-26
2022/12/28 14:17:07;;;;;;;5.97;4.50;;;;;;;16.07;58.36;97667.69;5128794;27;20425;-26
2022/12/28 14:19:33;;;;;;;7.68;4.97;;;;;;;16.14;58.30;97667.53;5096957;28;20032;-26
2022/12/28 14:21:59;;;;;;;7.82;5.68;;;;;;;16.19;58.10;97673.69;5097020;28;20042;-27
2022/12/28 14:24:25;;;;;;;7.53;5.65;;;;;;;16.13;57.65;97665.97;5115317;27;20471;-27
2022/12/28 14:26:56;;;;;;;9.30;5.32;;;;;;;15.97;58.66;97668.75;5115046;28;20476;-26
2022/12/28 14:29:31;;;;;;;6.22;4.60;;;;;;;16.09;58.57;97665.31;5115489;28;20027;-26
2022/12/28 14:31:58;;;;;;;6.32;4.53;;;;;;;16.21;58.17;97671.25;5115212;28;20027;-26
2022/12/28 14:34:29;;;;;;;7.40;5.10;;;;;;;16.15;58.24;97671.03;5115366;28;20023;-26
2022/12/28 14:36:56;;;;;;;6.25;4.30;;;;;;;16.14;58.36;97678.47;5115111;28;20019;-26
2022/12/28 14:39:31;;;;;;;6.93;4.57;;;;;;;16.15;58.26;97673.75;5114711;28;20464;-26
2022/12/28 14:41:58;;;;;;;5.30;4.32;;;;;;;16.20;58.06;97680.66;5115400;27;20076;-26
2022/12/28 14:44:30;;;;;;;10.00;5.70;;;;;;;16.16;58.29;97680.78;5114960;28;20032;-27
2022/12/28 14:46:56;;;;;;;8.32;5.40;;;;;;;16.21;58.18;97677.50;5115003;28;20023;-27
2022/12/28 14:49:27;;;;;;;6.97;5.00;;;;;;;16.08;58.18;97671.97;5114625;28;20038;-26
2022/12/28 14:52:08;;;;;;;6.75;4.80;;;;;;;15.93;58.93;97670.84;5123461;27;20019;-26
2022/12/28 14:54:48;;;;;;;8.02;5.30;;;;;;;15.99;58.61;97677.31;5121567;27;20019;-26
2022/12/28 14:57:23;;;;;;;7.53;5.20;;;;;;;16.11;58.19;97671.13;5121931;27;20082;-26
2022/12/28 14:59:59;;;;;;;7.75;5.32;;;;;;;16.20;58.20;97675.19;5114703;28;20022;-26
2022/12/28 15:02:33;;;;;;;8.35;5.20;;;;;;;16.19;58.02;97676.41;5128041;27;20381;-26
2022/12/28 15:19:03;;;;;;;6.25;5.03;;;;;;;16.20;58.10;97677.91;5113967;28;20421;-26
2022/12/28 15:21:29;;;;;;;6.75;4.05;;;;;;;16.11;58.11;97668.38;5114148;28;20032;-26
2022/12/28 15:23:55;;;;;;;7.60;4.63;;;;;;;16.20;58.05;97677.91;5113802;28;20030;-26
2022/12/28 15:26:23;;;;;;;6.30;4.72;;;;;;;16.20;58.17;97681.44;5114216;28;20027;-26
2022/12/28 15:28:49;;;;;;;7.13;4.97;;;;;;;16.18;58.04;97678.38;5114179;28;20080;-26
2022/12/28 15:31:18;;;;;;;7.88;5.40;;;;;;;16.20;57.99;97678.69;5114132;28;20402;-26
2022/12/28 15:33:44;;;;;;;8.05;5.13;;;;;;;16.13;58.34;97674.19;5114031;28;20024;-26
2022/12/28 15:36:13;;;;;;;6.70;4.70;;;;;;;16.16;57.89;97676.06;5113950;28;20028;-26
2022/12/28 15:38:38;;;;;;;6.70;4.35;;;;;;;16.16;58.31;97672.56;5114295;28;20035;-26
2022/12/28 15:41:44;;;;;;;8.63;5.40;;;;;;;16.20;58.22;97686.13;5127674;27;20023;-27
2022/12/28 15:43:49;;;;;;;8.65;5.65;;;;;;;16.17;58.62;97677.59;5113691;28;20032;-26
2022/12/28 15:46:15;;;;;;;7.40;5.30;;;;;;;16.12;58.28;97680.09;5095930;28;20031;-26
2022/12/28 15:48:40;;;;;;;6.93;5.28;;;;;;;16.16;58.37;97681.53;5123425;27;20057;-26
2022/12/28 15:51:06;;;;;;;7.10;5.00;;;;;;;16.17;58.33;97680.34;5118277;27;20375;-26
2022/12/28 15:53:31;;;;;;;8.90;5.75;;;;;;;16.18;58.32;97681.13;5123197;27;20019;-26
2022/12/28 15:56:00;;;;;;;7.55;5.22;;;;;;;16.15;58.18;97680.00;5117833;28;20043;-26
2022/12/28 15:58:26;;;;;;;9.02;5.38;;;;;;;16.17;58.33;97677.59;5113826;28;20039;-26
2022/12/28 16:01:14;;;;;;;6.75;5.53;;;;;;;16.15;58.36;97682.75;5127264;28;20032;-27
2022/12/28 16:03:40;;;;;;;7.90;5.55;;;;;;;16.11;58.40;97678.56;5116223;28;20025;-26
2022/12/28 16:06:06;;;;;;;9.77;6.13;;;;;;;16.13;58.38;97676.94;5118463;28;20011;-27
2022/12/28 16:08:31;;;;;;;9.15;6.53;;;;;;;16.13;58.31;97682.41;5121541;28;20019;-26
2022/12/28 16:11:11;;;;;;;12.07;7.55;;;;;;;16.12;58.18;97680.88;5113412;28;20024;-27
2022/12/28 16:13:37;;;;;;;14.20;7.68;;;;;;;16.12;58.40;97683.59;5113612;28;20022;-29
2022/12/28 16:16:08;;;;;;;16.35;9.38;;;;;;;16.10;58.23;97672.31;5113700;28;20036;-26
2022/12/28 16:18:34;;;;;;;18.33;10.13;;;;;;;16.11;58.06;97673.09;5117218;27;20024;-26
2022/12/28 16:21:01;;;;;;;23.45;10.27;;;;;;;16.04;58.37;97667.81;5117589;28;20018;-26
2022/12/28 16:23:31;;;;;;;18.50;9.68;;;;;;;16.06;58.28;97666.19;5117707;27;20494;-26
2022/12/28 16:25:57;;;;;;;20.08;10.70;;;;;;;16.08;58.12;97673.94;5126811;27;20023;-26
2022/12/28 16:28:23;;;;;;;16.95;9.95;;;;;;;16.07;58.18;97677.91;5137981;27;20058;-26
2022/12/28 16:30:49;;;;;;;17.08;9.45;;;;;;;16.12;57.90;97669.91;5138288;27;20027;-26
2022/12/28 16:33:14;;;;;;;17.90;10.63;;;;;;;16.10;57.87;97668.81;5120988;27;20034;-26
2022/12/28 16:35:40;;;;;;;19.25;10.10;;;;;;;16.05;58.03;97669.34;5117313;28;20356;-26
2022/12/28 16:38:05;;;;;;;15.52;9.75;;;;;;;16.08;58.15;97677.44;5117141;28;20119;-26
2022/12/28 16:40:31;;;;;;;18.98;10.38;;;;;;;16.10;57.70;97671.53;5117449;28;20059;-26
2022/12/28 16:42:56;;;;;;;15.27;10.38;;;;;;;16.06;57.87;97679.88;5117039;28;20034;-27
2022/12/28 16:45:22;;;;;;;17.30;10.70;;;;;;;16.07;57.87;97675.91;5117266;28;20043;-26
2022/12/28 16:47:47;;;;;;;17.48;10.73;;;;;;;16.19;57.59;97673.69;5133665;27;20019;-27
2022/12/28 16:50:15;;;;;;;17.55;11.25;;;;;;;16.12;57.84;97675.38;5128497;27;20540;-26
2022/12/28 16:52:40;;;;;;;18.33;11.00;;;;;;;16.11;57.65;97673.09;5119621;27;20040;-26
2022/12/28 16:55:06;;;;;;;20.73;10.95;;;;;;;16.04;57.86;97674.06;5137102;27;20086;-27
2022/12/28 16:57:32;;;;;;;19.67;12.07;;;;;;;16.07;57.74;97675.16;5137477;27;20110;-26
2022/12/28 16:59:57;;;;;;;21.88;11.40;;;;;;;16.04;57.73;97678.75;5127766;27;20050;-26
2022/12/28 17:02:23;;;;;;;21.23;11.75;;;;;;;16.08;57.59;97673.94;5130631;27;20047;-26
2022/12/28 17:04:48;;;;;;;21.95;12.20;;;;;;;16.07;57.68;97672.44;5116912;28;20023;-26
2022/12/28 17:07:13;;;;;;;23.13;13.65;;;;;;;16.01;57.67;97669.44;5118627;27;20060;-26
2022/12/28 17:09:39;;;;;;;22.67;14.07;;;;;;;16.03;57.64;97669.00;5129121;27;20114;-26
2022/12/28 17:12:04;;;;;;;22.08;13.75;;;;;;;16.03;57.83;97672.53;5116688;28;20395;-26
2022/12/28 17:14:30;;;;;;;23.13;14.43;;;;;;;16.00;57.84;97673.38;5116602;28;20019;-27
2022/12/28 17:16:55;;;;;;;23.85;15.10;;;;;;;16.04;57.72;97685.00;5116653;28;20498;-26
2022/12/28 17:19:21;;;;;;;24.23;15.55;;;;;;;15.99;57.63;97677.31;5116447;28;20028;-26
2022/12/28 17:21:46;;;;;;;25.50;16.67;;;;;;;16.00;57.70;97678.84;5116484;28;20031;-26
2022/12/28 17:24:12;;;;;;;26.02;16.60;;;;;;;16.00;57.53;97678.84;5116372;28;20071;-27
2022/12/28 17:26:37;;;;;;;26.52;16.67;;;;;;;16.02;57.66;97673.72;5116449;28;20485;-26
2022/12/28 17:29:03;;;;;;;27.23;17.85;;;;;;;16.02;57.83;97675.69;5115840;28;20084;-27
2022/12/28 17:31:28;;;;;;;29.50;18.40;;;;;;;16.05;57.53;97677.56;5098278;28;20375;-27
2022/12/28 17:33:59;;;;;;;29.70;17.77;;;;;;;16.01;57.56;97674.91;5116306;28;20012;-26
2022/12/28 17:36:25;;;;;;;29.35;17.98;;;;;;;16.04;57.55;97686.97;5116126;28;20022;-26
2022/12/28 17:38:51;;;;;;;25.63;17.80;;;;;;;15.99;57.73;97682.78;5116220;28;20023;-26
2022/12/28 17:41:22;;;;;;;25.35;17.40;;;;;;;16.02;57.55;97681.94;5116112;28;20030;-26
2022/12/28 17:43:50;;;;;;;23.42;17.08;;;;;;;16.01;57.63;97679.63;5115846;28;20031;-26
2022/12/28 17:46:17;;;;;;;27.77;16.67;;;;;;;16.09;57.30;97687.19;5115889;28;20019;-27
2022/12/28 17:48:42;;;;;;;25.17;17.00;;;;;;;16.03;57.45;97686.19;5126012;27;20027;-26
2022/12/28 17:51:08;;;;;;;26.80;16.25;;;;;;;16.01;57.37;97680.38;5122477;27;20019;-26
2022/12/28 17:53:34;;;;;;;26.27;16.77;;;;;;;16.03;57.39;97678.00;5126325;27;20016;-27
2022/12/28 17:56:05;;;;;;;22.73;15.98;;;;;;;16.04;57.30;97681.50;5129332;27;20123;-26
2022/12/28 17:58:30;;;;;;;24.98;16.13;;;;;;;16.07;57.39;97683.38;5116117;28;20442;-26
2022/12/28 18:00:57;;;;;;;21.80;16.38;;;;;;;16.02;57.29;97675.69;5133226;27;20103;-26
2022/12/28 18:03:23;;;;;;;23.40;16.48;;;;;;;15.96;57.80;97680.13;5125202;27;20028;-26
2022/12/28 18:05:50;;;;;;;22.38;16.00;;;;;;;16.01;57.30;97668.66;5115746;27;20065;-26
2022/12/28 18:08:16;;;;;;;21.20;14.35;;;;;;;15.28;59.20;97681.81;5125843;27;20027;-27
2022/12/28 18:10:42;;;;;;;24.33;16.55;;;;;;;14.90;58.27;97676.06;5118626;27;20016;-29
2022/12/28 18:13:08;;;;;;;26.05;16.63;;;;;;;15.30;58.20;97673.97;5116007;27;20034;-29
2022/12/28 18:15:34;;;;;;;22.88;15.93;;;;;;;15.48;58.23;97680.94;5110887;27;20027;-30
2022/12/28 18:18:00;;;;;;;19.55;14.27;;;;;;;15.71;58.17;97680.78;5132230;27;20027;-29
2022/12/28 18:20:26;;;;;;;19.85;14.52;;;;;;;15.80;58.31;97675.47;5113562;28;20036;-28
2022/12/28 18:22:51;;;;;;;18.48;13.55;;;;;;;15.82;58.49;97673.84;5128922;27;20204;-29
2022/12/28 18:25:17;;;;;;;17.58;12.75;;;;;;;15.89;58.54;97677.59;5133479;27;20026;-29
2022/12/28 18:27:42;;;;;;;19.48;13.40;;;;;;;15.90;58.53;97684.59;5130830;27;20027;-28
2022/12/28 18:30:08;;;;;;;16.98;13.30;;;;;;;15.96;58.67;97680.91;5114880;27;20649;-29
2022/12/28 18:32:34;;;;;;;18.35;11.88;;;;;;;16.04;58.44;97679.53;5112720;28;20038;-29
2022/12/28 18:35:00;;;;;;;16.15;12.10;;;;;;;16.02;58.54;97681.94;5128265;27;20034;-29
2022/12/28 18:37:25;;;;;;;16.38;11.57;;;;;;;16.14;58.27;97683.16;5132737;27;20019;-30
2022/12/28 18:39:51;;;;;;;16.02;11.77;;;;;;;16.21;57.87;97687.66;5131930;27;20027;-29
2022/12/28 18:42:24;;;;;;;15.48;12.50;;;;;;;16.21;57.91;97684.94;5132854;27;20027;-30
2022/12/28 18:44:49;;;;;;;18.93;13.00;;;;;;;16.27;57.99;97685.94;5133153;27;20345;-30
2022/12/28 18:47:15;;;;;;;16.33;12.70;;;;;;;16.31;57.76;97692.88;5128329;27;20266;-29
2022/12/28 18:49:40;;;;;;;17.52;12.18;;;;;;;16.33;57.59;97695.16;5121792;27;20084;-29
2022/12/28 18:52:05;;;;;;;14.52;11.23;;;;;;;16.34;57.33;97692.00;5116532;27;20059;-29
2022/12/28 18:54:31;;;;;;;21.73;13.55;;;;;;;16.41;57.08;97702.00;5114786;28;20027;-29
2022/12/28 18:56:57;;;;;;;21.10;11.65;;;;;;;16.41;56.96;97697.28;5096305;28;20108;-29
2022/12/28 18:59:23;;;;;;;17.83;12.45;;;;;;;16.37;57.23;97696.59;5126407;27;20071;-29
2022/12/28 19:01:49;;;;;;;17.98;11.68;;;;;;;16.45;56.74;97697.16;5128778;27;20016;-29
2022/12/28 19:04:15;;;;;;;16.55;12.07;;;;;;;16.44;56.69;97696.38;5114350;28;20471;-30
2022/12/28 19:06:41;;;;;;;18.15;11.57;;;;;;;16.45;56.68;97702.63;5125352;27;20374;-29
2022/12/28 19:09:08;;;;;;;15.60;11.20;;;;;;;16.54;56.33;97702.78;5117333;27;20046;-29
2022/12/28 19:11:35;;;;;;;14.38;11.52;;;;;;;16.48;56.58;97699.81;5114769;28;20030;-30
2022/12/28 19:14:02;;;;;;;15.25;11.00;;;;;;;16.55;56.46;97701.59;5114247;28;20024;-29
2022/12/28 19:16:27;;;;;;;13.60;10.73;;;;;;;16.55;56.46;97695.34;5114109;28;20023;-29
2022/12/28 19:18:53;;;;;;;14.63;10.38;;;;;;;16.55;56.26;97696.13;5118685;27;20472;-30
2022/12/28 19:21:36;;;;;;;14.38;10.57;;;;;;;16.53;56.33;97696.53;5134906;27;20099;-29
2022/12/28 19:24:05;;;;;;;13.38;9.70;;;;;;;16.55;56.29;97696.13;5114395;28;20095;-30
2022/12/28 19:26:32;;;;;;;14.77;10.40;;;;;;;16.55;56.26;97696.13;5114198;28;20103;-29
2022/12/28 19:28:58;;;;;;;13.70;9.65;;;;;;;16.59;56.23;97696.75;5114087;28;20364;-29
2022/12/28 19:31:23;;;;;;;11.82;9.30;;;;;;;16.62;55.87;97695.13;5114018;28;20098;-29
2022/12/28 19:33:49;;;;;;;12.48;9.43;;;;;;;16.60;55.92;97700.28;5114114;28;20024;-29
2022/12/28 19:36:15;;;;;;;13.35;9.15;;;;;;;16.60;56.00;97690.06;5115005;28;20058;-29
2022/12/28 19:38:41;;;;;;;12.25;8.98;;;;;;;16.64;56.05;97692.75;5134538;27;20022;-31
2022/12/28 19:41:10;;;;;;;11.38;8.85;;;;;;;16.57;56.40;97688.22;5133140;27;20023;-29
2022/12/28 19:43:36;;;;;;;13.32;8.15;;;;;;;16.61;56.52;97691.63;5104359;27;20030;-29
2022/12/28 19:46:05;;;;;;;11.55;8.60;;;;;;;16.60;56.36;97692.06;5114493;27;20112;-29
2022/12/28 19:48:31;;;;;;;14.00;8.68;;;;;;;16.61;56.44;97691.63;5113761;28;20023;-29
2022/12/28 19:50:57;;;;;;;9.20;7.25;;;;;;;16.63;56.21;97683.78;5127078;27;20022;-29
2022/12/28 19:53:22;;;;;;;11.77;7.82;;;;;;;16.61;56.51;97690.84;5104387;27;20019;-29
2022/12/28 19:55:48;;;;;;;11.68;8.07;;;;;;;16.73;56.23;97696.38;5109710;27;20043;-29
2022/12/28 19:58:14;;;;;;;11.65;8.15;;;;;;;16.62;56.42;97695.13;5093529;28;20020;-29
2022/12/28 20:00:39;;;;;;;11.43;7.38;;;;;;;16.72;56.17;97694.06;5109227;28;20020;-29
2022/12/28 20:03:06;;;;;;;9.98;6.63;;;;;;;16.63;56.25;97693.94;5103742;28;20077;-30
2022/12/28 20:05:34;;;;;;;12.07;7.53;;;;;;;16.69;56.35;97701.19;5094380;28;20457;-29
2022/12/28 20:08:00;;;;;;;10.15;7.00;;;;;;;16.70;56.48;97694.50;5093202;28;20024;-29
2022/12/28 20:10:25;;;;;;;10.30;7.68;;;;;;;16.63;56.27;97705.69;5092921;28;20047;-29
2022/12/28 20:12:50;;;;;;;10.10;7.53;;;;;;;16.70;55.98;97691.75;5095953;28;20027;-29
2022/12/28 20:15:16;;;;;;;9.55;7.15;;;;;;;16.64;56.50;97696.25;5093062;28;20024;-29
2022/12/28 20:17:46;;;;;;;10.52;6.97;;;;;;;16.74;56.19;97697.16;5096694;28;20460;-29
2022/12/28 20:20:11;;;;;;;10.75;7.25;;;;;;;16.63;56.67;97692.00;5093122;28;20052;-29